Time;durP1;ratioP1;P1;durP2;ratioP2;P2;SDS_P1;SDS_P2;PMS_P1;PMS_P2;Temp;Humidity;BMP_temperature;BMP_pressure;BME280_temperature;BME280_humidity;BME280_pressure;Samples;Min_cycle;Max_cycle;Signal;HPM_P1;HPM_P2
2022/06/21 00:01:26;;;;;;;;;;;13.50;99.90;;;;;;5074169;28;19908;-73
2022/06/21 00:03:51;;;;;;;;;;;13.60;99.90;;;;;;5073752;28;20003;-73
2022/06/21 00:06:21;;;;;;;;;;;13.60;99.90;;;;;;5074380;28;19961;-73
2022/06/21 00:08:46;;;;;;;;;;;13.70;99.90;;;;;;5074563;28;20353;-73
2022/06/21 00:11:24;;;;;;;;;;;13.80;99.90;;;;;;5074375;28;19915;-73
2022/06/21 00:13:50;;;;;;;;;;;13.80;99.90;;;;;;5072534;28;19908;-73
2022/06/21 00:16:16;;;;;;;;;;;13.80;99.90;;;;;;5074331;28;19982;-73
2022/06/21 00:18:44;;;;;;;;;;;13.80;99.90;;;;;;5079252;28;19912;-73
2022/06/21 00:21:13;;;;;;;;;;;13.80;99.90;;;;;;5076331;28;19927;-73
2022/06/21 00:23:39;;;;;;;;;;;13.90;99.90;;;;;;5073824;28;19908;-73
2022/06/21 00:26:05;;;;;;;;;;;13.90;99.90;;;;;;5072645;28;19970;-72
2022/06/21 00:28:30;;;;;;;;;;;13.80;99.90;;;;;;5074141;28;19909;-73
2022/06/21 00:30:56;;;;;;;;;;;13.90;99.90;;;;;;5074166;28;20402;-72
2022/06/21 00:33:22;;;;;;;;;;;13.90;99.90;;;;;;5072803;28;19969;-73
2022/06/21 00:35:49;;;;;;;;;;;13.90;99.90;;;;;;5074045;28;19909;-73
2022/06/21 00:38:16;;;;;;;;;;;13.90;99.90;;;;;;5073930;28;20008;-73
2022/06/21 00:40:42;;;;;;;;;;;13.90;99.90;;;;;;5074245;28;19916;-73
2022/06/21 00:43:12;;;;;;;;;;;13.90;99.90;;;;;;5071824;28;19908;-73
2022/06/21 00:45:39;;;;;;;;;;;14.00;99.90;;;;;;5073786;28;19919;-72
2022/06/21 00:48:13;;;;;;;;;;;13.90;99.90;;;;;;5080938;28;19944;-73
2022/06/21 00:50:41;;;;;;;;;;;13.90;99.90;;;;;;5081460;28;19966;-73
2022/06/21 00:53:16;;;;;;;;;;;13.90;99.90;;;;;;5073377;28;19912;-73
2022/06/21 00:55:47;;;;;;;;;;;13.90;99.90;;;;;;5075021;28;20007;-73
2022/06/21 00:58:14;;;;;;;;;;;14.00;99.90;;;;;;5074501;28;19914;-72
2022/06/21 01:00:47;;;;;;;;;;;14.10;99.90;;;;;;5073762;28;19912;-73
2022/06/21 01:03:14;;;;;;;;;;;14.00;99.90;;;;;;5072174;28;20003;-73
2022/06/21 01:05:41;;;;;;;;;;;14.00;99.90;;;;;;5071745;28;20297;-72
2022/06/21 01:08:08;;;;;;;;;;;13.80;99.90;;;;;;5073270;28;20373;-72
2022/06/21 01:10:34;;;;;;;;;;;13.70;99.90;;;;;;5073290;28;19908;-72
2022/06/21 01:13:01;;;;;;;;;;;13.60;99.90;;;;;;5072512;28;19909;-72
2022/06/21 01:15:31;;;;;;;;;;;13.40;99.90;;;;;;5073238;28;19912;-73
2022/06/21 01:18:01;;;;;;;;;;;13.30;99.90;;;;;;5082575;28;19912;-73
2022/06/21 01:20:29;;;;;;;;;;;13.30;99.90;;;;;;5077056;28;19918;-72
2022/06/21 01:23:11;;;;;;;;;;;13.20;99.90;;;;;;5073931;28;19916;-72
2022/06/21 01:25:40;;;;;;;;;;;13.30;99.90;;;;;;5088131;28;19915;-73
2022/06/21 01:28:06;;;;;;;;;;;13.20;99.90;;;;;;5094055;28;19908;-73
2022/06/21 01:30:32;;;;;;;;;;;13.00;99.90;;;;;;5094412;28;19908;-73
2022/06/21 01:32:58;;;;;;;;;;;13.00;99.90;;;;;;5093026;28;19919;-73
2022/06/21 01:35:36;;;;;;;;;;;12.90;99.90;;;;;;5093256;28;19908;-72
2022/06/21 01:38:02;;;;;;;;;;;12.90;99.90;;;;;;5093127;28;20368;-73
2022/06/21 01:40:29;;;;;;;;;;;12.70;99.90;;;;;;5093590;28;19912;-73
2022/06/21 01:42:59;;;;;;;;;;;12.60;99.90;;;;;;5092962;28;19908;-73
2022/06/21 01:45:26;;;;;;;;;;;12.60;99.90;;;;;;5093109;28;20373;-73
2022/06/21 01:48:00;;;;;;;;;;;12.50;99.90;;;;;;5082402;28;19962;-73
2022/06/21 01:50:27;;;;;;;;;;;12.40;99.90;;;;;;5084513;28;20400;-73
2022/06/21 01:52:54;;;;;;;;;;;12.40;99.90;;;;;;5074110;28;19919;-73
2022/06/21 01:55:23;;;;;;;;;;;12.30;99.90;;;;;;5073573;28;20381;-72
2022/06/21 01:57:48;;;;;;;;;;;12.20;99.90;;;;;;5074273;28;20384;-72
2022/06/21 02:00:14;;;;;;;;;;;12.20;99.90;;;;;;5073695;28;20035;-72
2022/06/21 02:02:42;;;;;;;;;;;12.10;99.90;;;;;;5072122;28;20051;-73
2022/06/21 02:05:12;;;;;;;;;;;12.00;99.90;;;;;;5072284;28;19923;-72
2022/06/21 02:07:43;;;;;;;;;;;12.00;99.90;;;;;;5072746;28;19909;-73
2022/06/21 02:10:09;;;;;;;;;;;12.00;99.90;;;;;;5073221;28;20347;-72
2022/06/21 02:12:35;;;;;;;;;;;12.10;99.90;;;;;;5071868;28;19990;-73
2022/06/21 02:15:02;;;;;;;;;;;12.10;99.90;;;;;;5071572;28;19913;-72
2022/06/21 02:17:34;;;;;;;;;;;11.90;99.90;;;;;;5078872;28;19908;-73
2022/06/21 02:20:13;;;;;;;;;;;11.90;99.90;;;;;;5073519;28;20457;-73
2022/06/21 02:22:39;;;;;;;;;;;11.90;99.90;;;;;;5071576;28;19970;-73
2022/06/21 02:25:05;;;;;;;;;;;11.90;99.90;;;;;;5071250;28;19912;-73
2022/06/21 02:27:34;;;;;;;;;;;11.80;99.90;;;;;;5071357;28;20228;-73
2022/06/21 02:30:00;;;;;;;;;;;11.80;99.90;;;;;;5071796;28;19908;-73
2022/06/21 02:32:26;;;;;;;;;;;11.80;99.90;;;;;;5071387;28;20330;-72
2022/06/21 02:34:54;;;;;;;;;;;11.80;99.90;;;;;;5070921;28;20023;-72
2022/06/21 02:37:19;;;;;;;;;;;11.70;99.90;;;;;;5071875;28;19935;-72
2022/06/21 02:39:46;;;;;;;;;;;11.70;99.90;;;;;;5071876;28;20377;-72
2022/06/21 02:42:16;;;;;;;;;;;11.70;99.90;;;;;;5071172;28;19915;-72
2022/06/21 02:44:44;;;;;;;;;;;11.60;99.90;;;;;;5069489;28;19908;-72
2022/06/21 02:47:12;;;;;;;;;;;11.60;99.90;;;;;;5076231;28;19908;-73
2022/06/21 02:49:42;;;;;;;;;;;11.60;99.90;;;;;;5078427;28;19909;-73
2022/06/21 02:52:13;;;;;;;;;;;11.60;99.90;;;;;;5071164;28;19908;-73
2022/06/21 02:54:39;;;;;;;;;;;11.60;99.90;;;;;;5069745;28;20393;-72
2022/06/21 02:57:05;;;;;;;;;;;11.70;99.90;;;;;;5071319;28;19940;-73
2022/06/21 02:59:32;;;;;;;;;;;11.60;99.90;;;;;;5072509;28;20312;-73
2022/06/21 03:02:00;;;;;;;;;;;11.60;99.90;;;;;;5070529;28;19924;-73
2022/06/21 03:04:33;;;;;;;;;;;11.60;99.90;;;;;;5089371;28;19931;-73
2022/06/21 03:06:58;;;;;;;;;;;11.50;99.90;;;;;;5090784;28;19938;-72
2022/06/21 03:09:24;;;;;;;;;;;11.60;99.90;;;;;;5090729;28;19908;-73
2022/06/21 03:11:51;;;;;;;;;;;11.50;99.90;;;;;;5090058;28;20371;-73
2022/06/21 03:14:18;;;;;;;;;;;11.50;99.90;;;;;;5090172;28;19912;-73
2022/06/21 03:16:44;;;;;;;;;;;11.50;99.90;;;;;;5086356;28;20303;-72
2022/06/21 03:19:17;;;;;;;;;;;11.50;99.90;;;;;;5081623;28;19931;-72
2022/06/21 03:21:43;;;;;;;;;;;11.60;99.90;;;;;;5074048;28;19916;-73
2022/06/21 03:24:12;;;;;;;;;;;11.50;99.90;;;;;;5070655;28;19915;-73
2022/06/21 03:26:39;;;;;;;;;;;11.50;99.90;;;;;;5090402;28;20360;-72
2022/06/21 03:29:05;;;;;;;;;;;11.60;99.90;;;;;;5090625;28;19956;-72
2022/06/21 03:31:32;;;;;;;;;;;11.60;99.90;;;;;;5090001;28;20369;-73
2022/06/21 03:34:08;;;;;;;;;;;11.50;99.90;;;;;;5089735;28;19908;-72
2022/06/21 03:36:33;;;;;;;;;;;11.60;99.90;;;;;;5090492;28;19908;-72
2022/06/21 03:39:01;;;;;;;;;;;11.70;99.90;;;;;;5090379;28;19912;-73
2022/06/21 03:41:45;;;;;;;;;;;11.90;99.90;;;;;;5089974;28;19912;-73
2022/06/21 03:44:13;;;;;;;;;;;12.00;99.90;;;;;;5087017;28;19921;-73
2022/06/21 03:46:52;;;;;;;;;;;12.10;99.90;;;;;;5085247;28;20168;-73
2022/06/21 03:49:30;;;;;;;;;;;12.20;99.90;;;;;;5072491;28;19909;-72
2022/06/21 03:51:57;;;;;;;;;;;12.40;99.90;;;;;;5070616;28;20439;-73
2022/06/21 03:54:28;;;;;;;;;;;12.50;99.90;;;;;;5070272;28;19987;-73
2022/06/21 03:57:00;;;;;;;;;;;12.60;99.90;;;;;;5070782;28;20015;-73
2022/06/21 03:59:37;;;;;;;;;;;12.50;99.90;;;;;;5070931;28;19909;-73
2022/06/21 04:02:03;;;;;;;;;;;12.60;99.90;;;;;;5074446;28;19912;-73
2022/06/21 04:04:31;;;;;;;;;;;12.70;99.90;;;;;;5073814;28;20086;-72
2022/06/21 04:06:58;;;;;;;;;;;12.80;99.90;;;;;;5074380;28;19970;-72
2022/06/21 04:09:42;;;;;;;;;;;12.80;99.90;;;;;;5074250;28;19915;-72
2022/06/21 04:12:14;;;;;;;;;;;12.90;99.90;;;;;;5073746;28;19909;-72
2022/06/21 04:14:40;;;;;;;;;;;12.80;99.90;;;;;;5072819;28;20008;-73
2022/06/21 04:17:05;;;;;;;;;;;12.90;99.90;;;;;;5078009;28;20130;-73
2022/06/21 04:19:40;;;;;;;;;;;13.00;99.90;;;;;;5083473;28;19909;-72
2022/06/21 04:22:05;;;;;;;;;;;13.00;99.90;;;;;;5073691;28;19942;-72
2022/06/21 04:24:57;;;;;;;;;;;13.00;99.90;;;;;;5073217;28;19908;-73
2022/06/21 04:27:29;;;;;;;;;;;13.00;99.90;;;;;;5085078;28;20376;-72
2022/06/21 04:29:58;;;;;;;;;;;13.00;99.90;;;;;;5093394;28;19987;-73
2022/06/21 04:32:24;;;;;;;;;;;13.20;99.90;;;;;;5088041;28;19915;-73
2022/06/21 04:34:52;;;;;;;;;;;13.30;99.90;;;;;;5077148;28;19909;-73
2022/06/21 04:37:21;;;;;;;;;;;13.40;99.90;;;;;;5093124;28;19934;-72
2022/06/21 04:39:59;;;;;;;;;;;13.50;99.90;;;;;;5093399;28;19908;-73
2022/06/21 04:42:32;;;;;;;;;;;13.60;99.90;;;;;;5092868;28;19999;-73
2022/06/21 04:45:11;;;;;;;;;;;13.70;99.90;;;;;;5092674;28;19912;-73
2022/06/21 04:47:47;;;;;;;;;;;13.80;99.90;;;;;;5092982;28;20425;-73
2022/06/21 04:50:13;;;;;;;;;;;14.00;99.90;;;;;;5092827;28;19915;-73
2022/06/21 04:52:42;;;;;;;;;;;13.90;99.90;;;;;;5092577;28;19919;-73
2022/06/21 04:55:12;;;;;;;;;;;13.90;99.90;;;;;;5092287;28;20395;-73
2022/06/21 04:57:38;;;;;;;;;;;14.10;99.90;;;;;;5093416;28;19908;-73
2022/06/21 05:00:05;;;;;;;;;;;14.10;99.90;;;;;;5092510;28;19931;-73
2022/06/21 05:02:33;;;;;;;;;;;14.20;99.90;;;;;;5086971;28;19908;-73
2022/06/21 05:05:13;;;;;;;;;;;14.30;99.90;;;;;;5079859;28;19912;-73
2022/06/21 05:07:44;;;;;;;;;;;14.30;99.90;;;;;;5073213;28;19909;-73
2022/06/21 05:10:14;;;;;;;;;;;14.30;99.90;;;;;;5073300;28;19912;-72
2022/06/21 05:12:42;;;;;;;;;;;14.30;99.90;;;;;;5071912;28;19916;-72
2022/06/21 05:15:18;;;;;;;;;;;14.40;99.90;;;;;;5071329;28;19913;-73
2022/06/21 05:17:48;;;;;;;;;;;14.30;99.90;;;;;;5073054;28;19913;-72
2022/06/21 05:20:19;;;;;;;;;;;14.20;99.90;;;;;;5072295;28;19908;-73
2022/06/21 05:22:47;;;;;;;;;;;14.20;99.90;;;;;;5081930;28;20381;-73
2022/06/21 05:25:18;;;;;;;;;;;14.30;99.90;;;;;;5073899;28;20381;-73
2022/06/21 05:27:50;;;;;;;;;;;14.40;99.90;;;;;;5072960;28;19908;-73
2022/06/21 05:30:27;;;;;;;;;;;14.50;99.90;;;;;;5088145;28;20343;-73
2022/06/21 05:32:54;;;;;;;;;;;14.60;99.90;;;;;;5072621;28;19970;-73
2022/06/21 05:35:21;;;;;;;;;;;14.60;99.90;;;;;;5071933;28;19939;-73
2022/06/21 05:37:49;;;;;;;;;;;14.70;99.90;;;;;;5072600;28;19939;-73
2022/06/21 05:40:36;;;;;;;;;;;14.60;99.90;;;;;;5072718;28;19994;-73
2022/06/21 05:43:02;;;;;;;;;;;14.40;99.90;;;;;;5072082;28;19991;-73
2022/06/21 05:45:31;;;;;;;;;;;14.20;99.90;;;;;;5071744;28;20011;-73
2022/06/21 05:47:59;;;;;;;;;;;14.10;99.90;;;;;;5072437;28;20373;-73
2022/06/21 05:50:27;;;;;;;;;;;14.10;99.90;;;;;;5075838;28;19998;-73
2022/06/21 05:52:55;;;;;;;;;;;14.20;99.90;;;;;;5079488;28;19909;-73
2022/06/21 05:55:20;;;;;;;;;;;14.50;99.90;;;;;;5072045;28;20431;-73
2022/06/21 05:57:46;;;;;;;;;;;15.00;99.90;;;;;;5072399;28;19912;-73
2022/06/21 06:00:31;;;;;;;;;;;15.90;99.90;;;;;;5072256;28;20384;-73
2022/06/21 06:03:05;;;;;;;;;;;16.50;99.90;;;;;;5071112;28;20284;-73
2022/06/21 06:05:31;;;;;;;;;;;17.00;99.90;;;;;;5076294;28;20230;-73
2022/06/21 06:08:05;;;;;;;;;;;17.10;99.90;;;;;;5080752;28;19916;-73
2022/06/21 06:10:31;;;;;;;;;;;16.70;99.90;;;;;;5069813;28;20307;-73
2022/06/21 06:13:01;;;;;;;;;;;17.40;99.90;;;;;;5086073;28;20007;-73
2022/06/21 06:15:28;;;;;;;;;;;17.80;99.90;;;;;;5071503;28;19909;-73
2022/06/21 06:18:17;;;;;;;;;;;18.40;99.90;;;;;;5071600;28;19920;-73
2022/06/21 06:20:43;;;;;;;;;;;18.50;99.90;;;;;;5063916;28;20362;-73
2022/06/21 06:23:20;;;;;;;;;;;18.80;99.90;;;;;;5082293;28;20210;-73
2022/06/21 06:25:53;;;;;;;;;;;18.80;99.90;;;;;;5092238;28;20081;-73
2022/06/21 06:28:37;;;;;;;;;;;18.50;99.90;;;;;;5072824;28;19909;-73
2022/06/21 06:31:17;;;;;;;;;;;18.40;99.90;;;;;;5085348;28;19908;-74
2022/06/21 06:33:47;;;;;;;;;;;18.60;99.90;;;;;;5085713;28;19952;-74
2022/06/21 06:36:16;;;;;;;;;;;19.20;99.90;;;;;;5076734;28;19962;-74
2022/06/21 06:38:41;;;;;;;;;;;19.40;99.90;;;;;;5074845;28;19927;-74
2022/06/21 06:41:11;;;;;;;;;;;19.60;99.90;;;;;;5073680;28;19935;-74
2022/06/21 06:43:36;;;;;;;;;;;19.30;99.90;;;;;;5070390;28;20021;-74
2022/06/21 06:46:02;;;;;;;;;;;19.40;99.90;;;;;;5070963;28;19912;-74
2022/06/21 06:48:31;;;;;;;;;;;20.10;99.90;;;;;;5070827;28;19912;-74
2022/06/21 06:51:06;;;;;;;;;;;20.50;99.90;;;;;;5073825;28;19942;-74
2022/06/21 06:53:37;;;;;;;;;;;20.70;99.40;;;;;;5082153;28;19908;-74
2022/06/21 06:56:10;;;;;;;;;;;21.10;99.70;;;;;;5069793;28;20293;-74
2022/06/21 06:58:48;;;;;;;;;;;21.10;98.30;;;;;;5071209;28;20046;-74
2022/06/21 07:01:19;;;;;;;;;;;20.80;98.40;;;;;;5083640;28;20007;-72
2022/06/21 07:03:47;;;;;;;;;;;21.10;96.40;;;;;;5089641;28;20296;-75
2022/06/21 07:06:33;;;;;;;;;;;20.90;96.80;;;;;;5090451;28;19912;-72
2022/06/21 07:09:01;;;;;;;;;;;21.60;95.50;;;;;;5076217;28;19912;-72
2022/06/21 07:11:38;;;;;;;;;;;22.30;95.40;;;;;;5078258;28;19999;-72
2022/06/21 07:14:05;;;;;;;;;;;22.30;95.60;;;;;;5070789;28;20444;-72
2022/06/21 07:16:32;;;;;;;;;;;22.70;93.20;;;;;;5070950;28;19909;-72
2022/06/21 07:18:59;;;;;;;;;;;21.50;96.40;;;;;;5075117;28;20362;-72
2022/06/21 07:21:25;;;;;;;;;;;21.00;96.90;;;;;;5080943;28;19920;-72
2022/06/21 07:23:52;;;;;;;;;;;20.10;96.60;;;;;;5081500;28;20330;-72
2022/06/21 07:26:32;;;;;;;;;;;19.70;99.10;;;;;;5070921;28;19919;-72
2022/06/21 07:29:03;;;;;;;;;;;19.80;99.90;;;;;;5071028;28;19912;-72
2022/06/21 07:31:33;;;;;;;;;;;19.90;99.10;;;;;;5083117;28;19969;-72
2022/06/21 07:34:10;;;;;;;;;;;19.60;99.80;;;;;;5070022;28;19940;-72
2022/06/21 07:36:39;;;;;;;;;;;19.70;99.90;;;;;;5073957;28;19912;-72
2022/06/21 07:39:08;;;;;;;;;;;20.20;99.80;;;;;;5072896;28;20487;-72
2022/06/21 07:41:43;;;;;;;;;;;20.60;99.10;;;;;;5073739;28;19924;-72
2022/06/21 07:44:18;;;;;;;;;;;20.70;98.60;;;;;;5073998;28;20386;-72
2022/06/21 07:46:46;;;;;;;;;;;21.50;99.00;;;;;;5074010;28;19918;-72
2022/06/21 07:49:25;;;;;;;;;;;22.00;96.30;;;;;;5074096;28;19909;-72
2022/06/21 07:51:52;;;;;;;;;;;20.90;97.10;;;;;;5076127;28;20296;-72
2022/06/21 07:54:24;;;;;;;;;;;20.00;98.60;;;;;;5074364;28;19944;-72
2022/06/21 07:56:57;;;;;;;;;;;19.80;99.40;;;;;;5093432;28;19908;-72
2022/06/21 07:59:30;;;;;;;;;;;19.80;99.20;;;;;;5093249;28;19908;-72
2022/06/21 08:07:38;;;;;;;;;;;21.90;96.80;;;;;;5085600;28;20009;-73
2022/06/21 08:10:15;;;;;;;;;;;22.30;93.00;;;;;;5085787;28;19916;-73
2022/06/21 08:12:41;;;;;;;;;;;21.80;94.00;;;;;;5073277;28;19975;-73
2022/06/21 08:15:07;;;;;;;;;;;20.90;94.80;;;;;;5073135;28;19916;-73
2022/06/21 08:17:38;;;;;;;;;;;20.80;94.80;;;;;;5074475;28;19913;-73
2022/06/21 08:20:19;;;;;;;;;;;21.10;96.00;;;;;;5074952;28;19916;-73
2022/06/21 08:22:50;;;;;;;;;;;21.30;93.70;;;;;;5083844;28;19917;-73
2022/06/21 08:25:18;;;;;;;;;;;21.80;94.50;;;;;;5076640;28;19920;-73
2022/06/21 08:27:50;;;;;;;;;;;22.10;92.40;;;;;;5073638;28;19915;-73
2022/06/21 08:30:36;;;;;;;;;;;22.00;95.40;;;;;;5073788;28;19951;-73
2022/06/21 08:33:09;;;;;;;;;;;21.80;94.20;;;;;;5086810;28;19919;-73
2022/06/21 08:35:37;;;;;;;;;;;21.30;94.70;;;;;;5092722;28;20448;-73
2022/06/21 08:38:09;;;;;;;;;;;21.20;95.10;;;;;;5092965;28;19908;-73
2022/06/21 08:40:40;;;;;;;;;;;21.30;93.90;;;;;;5092889;28;19920;-73
2022/06/21 08:43:24;;;;;;;;;;;20.70;96.30;;;;;;5091311;28;20241;-73
2022/06/21 08:46:09;;;;;;;;;;;20.80;98.10;;;;;;5095378;28;19912;-74
2022/06/21 08:48:53;;;;;;;;;;;22.30;97.10;;;;;;5075129;28;19912;-73
2022/06/21 08:51:21;;;;;;;;;;;22.90;92.70;;;;;;5079063;28;20026;-73
2022/06/21 08:54:00;;;;;;;;;;;22.00;90.80;;;;;;5092091;28;19995;-73
2022/06/21 08:56:40;;;;;;;;;;;21.00;92.30;;;;;;5073614;28;19947;-73
2022/06/21 08:59:24;;;;;;;;;;;20.60;93.60;;;;;;5086056;28;19912;-73
2022/06/21 09:01:49;;;;;;;;;;;21.00;93.90;;;;;;5072757;28;19916;-73
2022/06/21 09:04:39;;;;;;;;;;;21.60;94.10;;;;;;5074976;28;19908;-73
2022/06/21 09:07:15;;;;;;;;;;;21.30;92.60;;;;;;5075648;28;19923;-73
2022/06/21 09:09:55;;;;;;;;;;;20.90;93.70;;;;;;5080720;28;20312;-73
2022/06/21 09:12:29;;;;;;;;;;;20.70;94.30;;;;;;5086670;28;20091;-73
2022/06/21 09:15:01;;;;;;;;;;;21.60;95.10;;;;;;5091219;28;19955;-73
2022/06/21 09:17:26;;;;;;;;;;;23.20;96.20;;;;;;5092097;28;19919;-73
2022/06/21 09:20:21;;;;;;;;;;;24.00;92.60;;;;;;5080941;28;19987;-73
2022/06/21 09:22:50;;;;;;;;;;;24.50;90.80;;;;;;5064663;28;20023;-73
2022/06/21 09:25:18;;;;;;;;;;;24.20;86.30;;;;;;5071465;28;19916;-73
2022/06/21 09:27:47;;;;;;;;;;;25.40;91.50;;;;;;5085398;28;19908;-73
2022/06/21 09:30:32;;;;;;;;;;;25.90;86.00;;;;;;5072616;28;19944;-74
2022/06/21 09:33:10;;;;;;;;;;;26.20;85.20;;;;;;5071257;28;19909;-73
2022/06/21 09:35:39;;;;;;;;;;;24.50;88.70;;;;;;5071662;28;19916;-73
2022/06/21 09:38:11;;;;;;;;;;;25.80;88.40;;;;;;5072292;28;19915;-74
2022/06/21 09:40:39;;;;;;;;;;;26.60;83.80;;;;;;5072200;28;19908;-74
2022/06/21 09:43:15;;;;;;;;;;;25.90;83.70;;;;;;5071051;28;20362;-73
2022/06/21 09:45:47;;;;;;;;;;;25.50;79.20;;;;;;5071412;28;19923;-73
2022/06/21 09:48:18;;;;;;;;;;;25.50;90.30;;;;;;5085370;28;20369;-73
2022/06/21 09:50:59;;;;;;;;;;;25.50;79.00;;;;;;5078600;28;19908;-73
2022/06/21 09:53:28;;;;;;;;;;;24.40;82.20;;;;;;5091562;28;20440;-74
2022/06/21 09:56:03;;;;;;;;;;;24.70;85.50;;;;;;5069997;28;19912;-73
2022/06/21 09:58:29;;;;;;;;;;;25.50;82.70;;;;;;5071685;28;19908;-74
2022/06/21 10:01:06;;;;;;;;;;;25.50;88.80;;;;;;5072248;28;19909;-74
2022/06/21 10:03:43;;;;;;;;;;;25.60;86.20;;;;;;5077761;28;20419;-74
2022/06/21 10:06:23;;;;;;;;;;;25.50;81.60;;;;;;5079494;28;20331;-74
2022/06/21 10:09:02;;;;;;;;;;;25.20;86.70;;;;;;5076693;28;19943;-73
2022/06/21 10:11:49;;;;;;;;;;;26.00;85.80;;;;;;5080030;28;19912;-74
2022/06/21 10:14:36;;;;;;;;;;;25.30;84.20;;;;;;5071498;28;20288;-74
2022/06/21 10:17:21;;;;;;;;;;;25.70;86.90;;;;;;5086242;28;20307;-74
2022/06/21 10:19:55;;;;;;;;;;;26.90;84.60;;;;;;5090461;28;20022;-74
2022/06/21 10:22:28;;;;;;;;;;;26.20;86.50;;;;;;5072343;28;19930;-74
2022/06/21 10:24:57;;;;;;;;;;;27.20;86.80;;;;;;5081925;28;20007;-75
2022/06/21 10:27:25;;;;;;;;;;;27.20;80.20;;;;;;5067949;28;19909;-74
2022/06/21 10:30:06;;;;;;;;;;;27.00;77.50;;;;;;5069213;28;19962;-74
2022/06/21 10:32:40;;;;;;;;;;;27.60;84.50;;;;;;5084455;28;19915;-75
2022/06/21 10:35:24;;;;;;;;;;;28.50;81.30;;;;;;5089342;28;19912;-74
2022/06/21 10:38:02;;;;;;;;;;;28.50;83.40;;;;;;5090617;28;19916;-74
2022/06/21 10:40:33;;;;;;;;;;;27.60;81.00;;;;;;5090719;28;19957;-74
2022/06/21 10:43:14;;;;;;;;;;;27.00;81.00;;;;;;5089857;28;19908;-75
2022/06/21 10:45:46;;;;;;;;;;;27.80;82.20;;;;;;5090025;28;19919;-74
2022/06/21 10:48:12;;;;;;;;;;;27.30;73.00;;;;;;5090267;28;20416;-74
2022/06/21 10:50:56;;;;;;;;;;;27.40;80.00;;;;;;5083604;28;19922;-75
2022/06/21 10:53:41;;;;;;;;;;;27.20;80.70;;;;;;5073475;28;19908;-75
2022/06/21 10:59:15;;;;;;;;;;;28.90;76.00;;;;;;5086658;28;19931;-74
2022/06/21 11:01:59;;;;;;;;;;;27.30;86.30;;;;;;5089957;28;19908;-74
2022/06/21 11:04:56;;;;;;;;;;;28.40;80.80;;;;;;5089766;28;19916;-74
2022/06/21 11:07:28;;;;;;;;;;;28.40;74.30;;;;;;5050190;28;20297;-75
2022/06/21 11:10:12;;;;;;;;;;;28.50;75.90;;;;;;5093953;28;19913;-75
2022/06/21 11:12:56;;;;;;;;;;;28.30;78.70;;;;;;5074749;28;19919;-74
2022/06/21 11:15:40;;;;;;;;;;;27.20;79.50;;;;;;5074026;28;20049;-74
2022/06/21 11:18:08;;;;;;;;;;;26.80;80.20;;;;;;5075031;28;19916;-74
2022/06/21 11:20:34;;;;;;;;;;;26.10;79.70;;;;;;5083101;28;20425;-75
2022/06/21 11:23:02;;;;;;;;;;;25.90;80.30;;;;;;5086698;28;19947;-74
2022/06/21 11:25:28;;;;;;;;;;;26.10;85.80;;;;;;5080418;28;19916;-74
2022/06/21 11:28:01;;;;;;;;;;;26.70;83.50;;;;;;5075118;28;19916;-74
2022/06/21 11:30:33;;;;;;;;;;;26.60;83.50;;;;;;5074786;28;19995;-74
2022/06/21 11:33:04;;;;;;;;;;;26.50;83.60;;;;;;5087247;28;19908;-74
2022/06/21 11:35:49;;;;;;;;;;;27.30;83.60;;;;;;5093773;28;19962;-74
2022/06/21 11:38:24;;;;;;;;;;;27.90;76.20;;;;;;5094117;28;19950;-74
2022/06/21 11:40:49;;;;;;;;;;;25.80;81.90;;;;;;5094096;28;19909;-74
2022/06/21 11:43:15;;;;;;;;;;;25.00;84.20;;;;;;5093246;28;19915;-74
2022/06/21 11:45:46;;;;;;;;;;;25.40;87.10;;;;;;5093625;28;20315;-74
2022/06/21 11:48:14;;;;;;;;;;;26.30;85.60;;;;;;5094166;28;19908;-74
2022/06/21 11:50:55;;;;;;;;;;;26.80;82.40;;;;;;5086867;28;19912;-74
2022/06/21 11:53:26;;;;;;;;;;;26.50;82.60;;;;;;5081194;28;19912;-74
2022/06/21 11:56:07;;;;;;;;;;;25.90;80.60;;;;;;5074598;28;19908;-74
2022/06/21 11:58:45;;;;;;;;;;;25.70;86.60;;;;;;5073203;28;19999;-74
2022/06/21 12:01:23;;;;;;;;;;;25.10;86.90;;;;;;5080399;28;19912;-74
2022/06/21 12:03:57;;;;;;;;;;;25.80;83.80;;;;;;5092032;28;20007;-74
2022/06/21 12:06:29;;;;;;;;;;;26.40;85.40;;;;;;5074731;28;20396;-74
2022/06/21 12:08:58;;;;;;;;;;;27.10;83.20;;;;;;5091344;28;19958;-74
2022/06/21 12:11:28;;;;;;;;;;;26.60;82.60;;;;;;5074326;28;20378;-74
2022/06/21 12:13:54;;;;;;;;;;;27.10;82.90;;;;;;5073613;28;20320;-75
2022/06/21 12:16:28;;;;;;;;;;;28.50;80.60;;;;;;5073631;28;19962;-74
2022/06/21 12:18:59;;;;;;;;;;;28.80;77.20;;;;;;5084412;28;20016;-74
2022/06/21 12:21:29;;;;;;;;;;;28.20;79.00;;;;;;5077771;28;19916;-74
2022/06/21 12:23:57;;;;;;;;;;;27.40;79.30;;;;;;5083846;28;19915;-74
2022/06/21 12:26:27;;;;;;;;;;;26.30;79.70;;;;;;5073360;28;19912;-74
2022/06/21 12:28:54;;;;;;;;;;;26.60;86.40;;;;;;5073609;28;19916;-74
2022/06/21 12:31:31;;;;;;;;;;;26.20;82.40;;;;;;5073196;28;19924;-74
2022/06/21 12:34:02;;;;;;;;;;;25.40;85.10;;;;;;5073236;28;19966;-74
2022/06/21 12:36:30;;;;;;;;;;;24.60;86.50;;;;;;5072778;28;19912;-74
2022/06/21 12:38:58;;;;;;;;;;;24.40;88.20;;;;;;5073664;28;20373;-74
2022/06/21 12:41:29;;;;;;;;;;;24.60;88.40;;;;;;5073153;28;20277;-74
2022/06/21 12:43:58;;;;;;;;;;;24.80;86.10;;;;;;5073198;28;20272;-74
2022/06/21 12:46:30;;;;;;;;;;;25.10;85.80;;;;;;5084215;28;19916;-74
2022/06/21 12:49:14;;;;;;;;;;;26.00;86.20;;;;;;5092368;28;20003;-75
2022/06/21 12:51:42;;;;;;;;;;;29.20;76.90;;;;;;5077822;28;19908;-74
2022/06/21 12:54:30;;;;;;;;;;;31.30;75.20;;;;;;5088841;28;20281;-74
2022/06/21 12:57:06;;;;;;;;;;;30.20;75.80;;;;;;5072611;28;19916;-74
2022/06/21 12:59:44;;;;;;;;;;;33.40;67.00;;;;;;5073490;28;19962;-74
2022/06/21 13:02:16;;;;;;;;;;;33.70;67.60;;;;;;5072619;28;19908;-74
2022/06/21 13:04:51;;;;;;;;;;;33.20;62.50;;;;;;5085417;28;19915;-74
2022/06/21 13:07:27;;;;;;;;;;;33.30;62.70;;;;;;5087447;28;20067;-74
2022/06/21 13:09:56;;;;;;;;;;;33.50;63.60;;;;;;5079806;28;19912;-74
2022/06/21 13:12:33;;;;;;;;;;;33.40;63.30;;;;;;5076435;28;19919;-74
2022/06/21 13:15:16;;;;;;;;;;;33.30;64.40;;;;;;5072262;28;19991;-74
2022/06/21 13:17:55;;;;;;;;;;;32.70;64.10;;;;;;5072568;28;19909;-74
2022/06/21 13:20:20;;;;;;;;;;;29.70;69.10;;;;;;5081665;28;19915;-74
2022/06/21 13:23:04;;;;;;;;;;;28.60;73.40;;;;;;5078084;28;19916;-74
2022/06/21 13:25:42;;;;;;;;;;;31.50;68.10;;;;;;5072605;28;19916;-74
2022/06/21 13:28:23;;;;;;;;;;;32.00;64.90;;;;;;5071054;28;19913;-74
2022/06/21 13:30:54;;;;;;;;;;;32.70;66.00;;;;;;5072532;28;19920;-75
2022/06/21 13:33:20;;;;;;;;;;;33.10;63.30;;;;;;5090609;28;19912;-75
2022/06/21 13:35:57;;;;;;;;;;;30.70;68.30;;;;;;5092064;28;19953;-74
2022/06/21 13:38:22;;;;;;;;;;;27.90;77.50;;;;;;5082860;28;19917;-74
2022/06/21 13:40:50;;;;;;;;;;;31.30;72.00;;;;;;5079454;28;19908;-75
2022/06/21 13:43:24;;;;;;;;;;;33.40;62.90;;;;;;5072225;28;19909;-75
2022/06/21 13:45:53;;;;;;;;;;;34.10;61.90;;;;;;5071303;28;20357;-75
2022/06/21 13:48:39;;;;;;;;;;;34.80;61.10;;;;;;5072089;28;19908;-75
2022/06/21 13:51:14;;;;;;;;;;;34.30;59.20;;;;;;5072028;28;20007;-75
2022/06/21 13:53:42;;;;;;;;;;;33.60;61.60;;;;;;5075877;28;19920;-76
2022/06/21 13:56:26;;;;;;;;;;;33.60;60.20;;;;;;5074319;28;19939;-74
2022/06/21 13:59:02;;;;;;;;;;;32.70;60.50;;;;;;5088309;28;20372;-75
2022/06/21 14:01:42;;;;;;;;;;;33.70;65.60;;;;;;5087273;28;19951;-75
2022/06/21 14:04:14;;;;;;;;;;;34.20;62.90;;;;;;5076123;28;19970;-73
2022/06/21 14:06:49;;;;;;;;;;;34.50;59.90;;;;;;5083472;28;19955;-74
2022/06/21 14:09:21;;;;;;;;;;;34.30;58.00;;;;;;5082479;28;19908;-74
2022/06/21 14:11:56;;;;;;;;;;;33.00;59.40;;;;;;5086575;28;19950;-75
2022/06/21 14:14:41;;;;;;;;;;;32.50;61.90;;;;;;5087249;28;19952;-75
2022/06/21 14:17:25;;;;;;;;;;;34.00;60.80;;;;;;5092200;28;20740;-74
2022/06/21 14:20:05;;;;;;;;;;;34.20;60.20;;;;;;5087345;28;19999;-75
2022/06/21 14:22:37;;;;;;;;;;;34.10;62.70;;;;;;5087892;28;20003;-73
2022/06/21 14:25:11;;;;;;;;;;;33.70;60.30;;;;;;5074461;28;20028;-74
2022/06/21 14:27:50;;;;;;;;;;;33.00;61.30;;;;;;5093430;28;20456;-74
2022/06/21 14:30:15;;;;;;;;;;;33.60;60.50;;;;;;5092938;28;19987;-75
2022/06/21 14:32:45;;;;;;;;;;;32.90;60.90;;;;;;5093273;28;19950;-75
2022/06/21 14:35:24;;;;;;;;;;;32.50;64.70;;;;;;5091557;28;19908;-74
2022/06/21 14:38:08;;;;;;;;;;;33.10;64.50;;;;;;5089183;28;19961;-75
2022/06/21 14:40:40;;;;;;;;;;;33.20;63.80;;;;;;5083010;28;19915;-74
2022/06/21 14:43:23;;;;;;;;;;;33.50;61.70;;;;;;5079766;28;19915;-73
2022/06/21 14:46:04;;;;;;;;;;;32.30;64.50;;;;;;5081665;28;20371;-74
2022/06/21 14:48:33;;;;;;;;;;;32.40;65.90;;;;;;5073232;28;20297;-74
2022/06/21 14:51:11;;;;;;;;;;;31.50;68.70;;;;;;5091245;28;19961;-74
2022/06/21 14:53:53;;;;;;;;;;;29.70;70.50;;;;;;5090880;28;19931;-74